Overton, Alabama
Current Conditions -  °F | °C
As of 2:53 AM on Thursday 18 Dec 2014 (Local Time) from KBHM Reporting Station
Broken Clouds Broken Clouds  
Wind Chill: 30°   Ceiling: 25000
Heat Index: 34°   Visibility: 9mi
Dew Point: 31°   Wind: 5mph
Humidity: 89%   Direction: 350°N
Pressure: 30.22"   Gusts: NA
Location:  33.5393°N, 86.6626°W
Report Text: KBHM 180853Z 35004KT 9SM BKN250 01/M01 A3022 RMK AO2 SLP236 T00111006 53007
Loading
Personal Weather Stations






























Interactive Weather Map New forecast layout! Learn more

10-Day Weather Forecast

Advertisements
Track Severe Weather on mobile